Emmet, South Dakota
Current Conditions -  °F | °C
As of 6:15 PM on Wednesday 26 Nov 2014 (Local Time) from KYKN Reporting Station
Clear Clear  
Wind Chill:   Ceiling: Unl
Heat Index: 14°   Visibility: 10mi
Dew Point:   Wind: 12mph
Humidity: 79%   Direction: 320°NW
Pressure: 30.43"   Gusts: NA
Location:  43.1048°N, 96.7944°W
Report Text: KYKN 270015Z AUTO 32010KT 10SM CLR M10/M13 A3043 RMK AO1
Loading
Personal Weather Stations






























Interactive Weather Map New forecast layout! Learn more

10-Day Weather Forecast

Advertisements
Track Severe Weather on mobile